Kirklareli, Turkey

7:21 AM EEST on August 21, 2014 (GMT +0300)
Burgas | Change Station
CLOSE
Current Station
Airport
Location: Burgas,
Elevation: 135 ft
Nearby Weather Stations

Elev 135 ft 42.57 °N, 27.51 °E | Updated 21 minutes ago

Partly Cloudy
Partly Cloudy
66 °F
Feels Like 66 °F
N
4
Wind Variable Wind from SW

Today
High -- | Low -- °F
--% Chance of Precip.
Yesterday
High -- | Low -- °F
Precip. -- in
6:25 AM 8:02 PM
Waning Crescent, 17% visible
Pressure 29.98 in
Visibility -9999.0 miles
Clouds Few 2400 ft
Dew Point 66 °F
Humidity 100%
Rainfall 0.00 in
Snow Depth Not available.
UV 0 out of 12
Pollen Not available.
Air Quality Not available.
Flu Activity Not available.
METAR LBBG 210400Z 22002MPS 4400 BR FEW024 19/19 Q1015 NOSIG

More Conditions Fewer Conditions

Pressure 29.98 in
Visibility -9999.0 miles
Clouds Few 2400 ft
Dew Point 66 °F
Humidity 100%
Rainfall 0.00 in
Snow Depth Not available.
UV 0 out of 12
Pollen Not available.
Air Quality Not available.
Flu Activity Not available.
METAR LBBG 210400Z 22002MPS 4400 BR FEW024 19/19 Q1015 NOSIG

More Conditions Fewer Conditions

10-Day Weather Forecast

Almanac

Astronomy

Aug. 21, 2014 Rise Set
Actual Time 6:25 AM EEST 8:02 PM EEST
Civil Twilight 5:55 AM EEST 8:31 PM EEST
Nautical Twilight 5:20 AM EEST 9:07 PM EEST
Astronomical Twilight 4:42 AM EEST 9:45 PM EEST
Moon 2:37 AM EEST 5:18 PM EEST
Length of Visible Light 14h 35m
Length of Day
13h 37m
Tomorrow will be 2m 34s shorter.
Waning Crescent, 17% of the Moon is Illuminated
Today
Waning Crescent
Aug 25
New
Sep 2
First Quarter
Sep 8
Full
Sep 15
Last Quarter

Yesterday's Extremes

Country Highs Country Lows

Community

WunderPhotos

Upload Photos

1,745,852 photos uploaded!

Nearby

Snow Depth

Not available.

Earthquake Activity

City Distance Mag. Time & Date
No recent earthquake activity has been reported nearby.
Minimum magnitude displayed is 2.5.

Coastal Water Temperatures

Place Temperature
No Stations Reporting

Nearby Weather Stations